Time;durP1;ratioP1;P1;durP2;ratioP2;P2;SDS_P1;SDS_P2;PMS_P1;PMS_P2;Temp;Humidity;BMP_temperature;BMP_pressure;BME280_temperature;BME280_humidity;BME280_pressure;Samples;Min_cycle;Max_cycle;Signal;HPM_P1;HPM_P2
2022/07/09 00:01:00;;;;;;;3.25;2.05;;;;;23.40;102729.00;;;;5029762;28;20246;-81
2022/07/09 00:03:27;;;;;;;3.25;2.15;;;;;23.40;102724.00;;;;5035008;28;20204;-81
2022/07/09 00:05:54;;;;;;;2.65;1.83;;;;;23.40;102720.00;;;;5028162;28;20211;-81
2022/07/09 00:08:22;;;;;;;2.28;2.00;;;;;23.40;102718.00;;;;5040923;28;20211;-80
2022/07/09 00:10:49;;;;;;;2.85;2.03;;;;;23.30;102714.00;;;;5032325;28;20195;-81
2022/07/09 00:13:16;;;;;;;2.42;1.90;;;;;23.30;102721.00;;;;5039972;28;20684;-80
2022/07/09 00:15:45;;;;;;;3.08;1.77;;;;;23.30;102717.00;;;;5035038;28;20199;-82
2022/07/09 00:18:12;;;;;;;2.35;1.40;;;;;23.30;102719.00;;;;5035261;28;20584;-80
2022/07/09 00:20:40;;;;;;;2.22;1.77;;;;;23.20;102714.00;;;;5045579;28;20223;-81
2022/07/09 00:23:07;;;;;;;4.63;1.88;;;;;23.20;102714.00;;;;5029067;28;20196;-81
2022/07/09 00:25:34;;;;;;;2.28;1.95;;;;;23.20;102714.00;;;;5036462;28;20192;-80
2022/07/09 00:28:02;;;;;;;3.50;1.92;;;;;23.20;102709.00;;;;5027497;28;20200;-80
2022/07/09 00:30:29;;;;;;;1.65;1.55;;;;;23.10;102710.00;;;;5030377;28;20196;-81
2022/07/09 00:32:58;;;;;;;1.95;1.70;;;;;23.10;102717.00;;;;5046125;28;20188;-81
2022/07/09 00:35:25;;;;;;;3.75;1.92;;;;;23.10;102717.00;;;;5032432;28;20206;-81
2022/07/09 00:37:53;;;;;;;3.15;1.73;;;;;23.10;102717.00;;;;5043313;28;20235;-81
2022/07/09 00:40:20;;;;;;;3.53;1.83;;;;;23.00;102718.00;;;;5034152;28;20224;-81
2022/07/09 00:42:47;;;;;;;1.83;1.73;;;;;23.00;102712.00;;;;5034255;28;20208;-81
2022/07/09 00:45:17;;;;;;;2.92;2.05;;;;;22.90;102707.00;;;;5050818;28;20192;-81
2022/07/09 00:47:44;;;;;;;2.67;1.75;;;;;22.90;102705.00;;;;5043310;28;20216;-81
2022/07/09 00:50:13;;;;;;;1.63;1.52;;;;;22.90;102708.00;;;;5034961;28;20204;-80
2022/07/09 00:52:42;;;;;;;1.83;1.60;;;;;22.80;102703.00;;;;5035856;28;20218;-80
2022/07/09 00:55:12;;;;;;;2.00;1.50;;;;;22.80;102701.00;;;;5044764;28;20231;-81
2022/07/09 00:57:41;;;;;;;3.30;2.35;;;;;22.80;102696.00;;;;5035215;28;20206;-80
2022/07/09 01:00:09;;;;;;;3.47;2.38;;;;;22.70;102698.00;;;;5028937;28;20223;-80
2022/07/09 01:02:37;;;;;;;4.00;2.95;;;;;22.70;102697.00;;;;5039885;28;20211;-80
2022/07/09 01:05:05;;;;;;;5.63;3.17;;;;;22.70;102696.00;;;;5040626;28;20219;-81
2022/07/09 01:07:33;;;;;;;4.93;3.30;;;;;22.60;102687.00;;;;5031847;28;20200;-81
2022/07/09 01:10:01;;;;;;;4.78;3.35;;;;;22.60;102686.00;;;;5032616;28;20204;-81
2022/07/09 01:12:28;;;;;;;5.22;3.67;;;;;22.60;102693.00;;;;5031369;28;20196;-80
2022/07/09 01:14:55;;;;;;;6.63;3.83;;;;;22.60;102686.00;;;;5032777;28;20196;-80
2022/07/09 01:17:23;;;;;;;5.88;3.90;;;;;22.60;102692.00;;;;5033081;28;20208;-80
2022/07/09 01:19:50;;;;;;;5.07;3.17;;;;;22.50;102687.00;;;;5047948;28;20203;-81
2022/07/09 01:22:19;;;;;;;3.17;2.65;;;;;22.50;102690.00;;;;5049463;28;20192;-81
2022/07/09 01:24:47;;;;;;;4.10;3.30;;;;;22.50;102686.00;;;;5043637;28;20677;-81
2022/07/09 01:27:14;;;;;;;3.55;3.25;;;;;22.50;102685.00;;;;5030274;28;20223;-80
2022/07/09 01:29:48;;;;;;;4.47;3.10;;;;;22.40;102689.00;;;;5030251;28;20200;-80
2022/07/09 01:32:16;;;;;;;3.67;3.00;;;;;22.40;102685.00;;;;5031241;28;20274;-80
2022/07/09 01:34:43;;;;;;;4.03;3.42;;;;;22.40;102686.00;;;;5039218;28;20200;-80
2022/07/09 01:37:10;;;;;;;3.78;3.20;;;;;22.40;102682.00;;;;5038922;28;20219;-80
2022/07/09 01:39:49;;;;;;;6.07;3.45;;;;;22.30;102675.00;;;;5030212;28;21131;-80
2022/07/09 01:42:17;;;;;;;3.22;2.92;;;;;22.30;102678.00;;;;5039549;28;20223;-80
2022/07/09 01:44:45;;;;;;;2.92;2.38;;;;;22.30;102674.00;;;;5029653;28;20674;-80
2022/07/09 01:47:14;;;;;;;3.83;2.53;;;;;22.30;102669.00;;;;5028629;28;20197;-80
2022/07/09 01:49:42;;;;;;;3.28;2.58;;;;;22.20;102669.00;;;;5030619;28;20315;-80
2022/07/09 01:52:10;;;;;;;3.95;3.15;;;;;22.20;102664.00;;;;5049025;28;20788;-80
2022/07/09 01:54:38;;;;;;;3.22;2.72;;;;;22.20;102667.00;;;;5031384;28;21046;-80
2022/07/09 01:57:06;;;;;;;3.33;2.22;;;;;22.20;102661.00;;;;5035274;28;20706;-80
2022/07/09 01:59:33;;;;;;;3.15;2.08;;;;;22.10;102664.00;;;;5026977;28;20597;-81
2022/07/09 02:02:01;;;;;;;2.78;2.08;;;;;22.10;102662.00;;;;5034124;28;20231;-80
2022/07/09 02:04:28;;;;;;;3.45;2.17;;;;;22.10;102658.00;;;;5029459;28;20222;-80
2022/07/09 02:06:57;;;;;;;5.13;2.55;;;;;22.10;102658.00;;;;5036506;28;20205;-81
2022/07/09 02:09:24;;;;;;;2.38;2.17;;;;;22.10;102656.00;;;;5041902;28;20199;-80
2022/07/09 02:11:53;;;;;;;2.80;2.30;;;;;22.00;102649.00;;;;5039621;28;20211;-80
2022/07/09 02:14:20;;;;;;;3.78;2.78;;;;;22.00;102635.00;;;;5029743;28;20674;-80
2022/07/09 02:16:48;;;;;;;3.17;2.05;;;;;22.00;102645.00;;;;5032856;28;20208;-80
2022/07/09 02:19:15;;;;;;;2.85;2.30;;;;;22.00;102635.00;;;;5045534;28;20219;-81
2022/07/09 02:21:42;;;;;;;3.05;2.42;;;;;22.00;102640.00;;;;5044236;28;20222;-80
2022/07/09 02:24:09;;;;;;;4.45;2.78;;;;;21.90;102643.00;;;;5036446;28;20555;-81
2022/07/09 02:26:37;;;;;;;2.72;2.53;;;;;21.90;102639.00;;;;5031380;28;20208;-81
2022/07/09 02:29:06;;;;;;;4.60;3.10;;;;;21.90;102643.00;;;;5030294;28;20196;-80
2022/07/09 02:31:33;;;;;;;3.10;2.58;;;;;21.90;102634.00;;;;5038219;28;20204;-80
2022/07/09 02:34:00;;;;;;;3.15;2.85;;;;;21.90;102643.00;;;;5030971;28;20929;-80
2022/07/09 02:36:28;;;;;;;3.58;2.40;;;;;21.80;102639.00;;;;5030558;28;20666;-80
2022/07/09 02:38:55;;;;;;;3.00;2.45;;;;;21.80;102635.00;;;;5030851;28;20231;-80
2022/07/09 02:41:23;;;;;;;3.17;2.22;;;;;21.80;102644.00;;;;5037037;28;20220;-80
2022/07/09 02:43:50;;;;;;;2.63;2.38;;;;;21.80;102644.00;;;;5046235;28;20200;-80
2022/07/09 02:46:19;;;;;;;3.65;2.83;;;;;21.80;102647.00;;;;5037897;28;20200;-80
2022/07/09 02:48:46;;;;;;;2.78;2.40;;;;;21.80;102632.00;;;;5044057;28;20199;-80
2022/07/09 02:51:14;;;;;;;3.10;2.67;;;;;21.70;102641.00;;;;5036339;28;20200;-80
2022/07/09 02:53:41;;;;;;;4.07;2.30;;;;;21.70;102634.00;;;;5029681;28;20611;-80
2022/07/09 02:56:08;;;;;;;3.70;2.38;;;;;21.70;102631.00;;;;5029045;28;20232;-80
2022/07/09 02:58:35;;;;;;;2.83;2.63;;;;;21.70;102631.00;;;;5038158;28;20200;-80
2022/07/09 03:01:05;;;;;;;3.47;2.72;;;;;21.70;102628.00;;;;5036235;28;20223;-80
2022/07/09 03:03:35;;;;;;;5.43;3.05;;;;;21.70;102631.00;;;;5042012;28;20200;-80
2022/07/09 03:06:03;;;;;;;4.07;2.95;;;;;21.70;102622.00;;;;5048696;28;20249;-80
2022/07/09 03:08:34;;;;;;;4.38;3.55;;;;;21.70;102626.00;;;;5048886;28;20187;-80
2022/07/09 03:11:02;;;;;;;3.38;3.08;;;;;21.70;102626.00;;;;5029108;28;20200;-80
2022/07/09 03:13:29;;;;;;;3.92;3.20;;;;;21.70;102629.00;;;;5029599;28;20250;-80
2022/07/09 03:15:57;;;;;;;3.95;3.42;;;;;21.70;102626.00;;;;5035109;28;20204;-80
2022/07/09 03:18:24;;;;;;;5.78;3.75;;;;;21.70;102626.00;;;;5029393;28;20201;-80
2022/07/09 03:20:53;;;;;;;5.60;4.25;;;;;21.70;102632.00;;;;5028334;28;20247;-80
2022/07/09 03:23:21;;;;;;;5.63;4.47;;;;;21.80;102630.00;;;;5034148;28;20658;-80
2022/07/09 03:25:48;;;;;;;6.40;4.25;;;;;21.80;102625.00;;;;5039789;28;20197;-80
2022/07/09 03:28:15;;;;;;;6.55;4.72;;;;;21.80;102630.00;;;;5028892;28;20205;-80
2022/07/09 03:30:42;;;;;;;7.47;5.40;;;;;21.80;102628.00;;;;5036872;28;20200;-80
2022/07/09 03:33:10;;;;;;;6.68;4.72;;;;;21.80;102632.00;;;;5029125;28;20207;-80
2022/07/09 03:35:38;;;;;;;9.50;4.38;;;;;21.80;102624.00;;;;5042159;28;20215;-80
2022/07/09 03:38:07;;;;;;;4.32;3.90;;;;;21.80;102626.00;;;;5033353;28;20216;-80
2022/07/09 03:40:34;;;;;;;5.75;3.38;;;;;21.80;102629.00;;;;5036642;28;20204;-80
2022/07/09 03:43:02;;;;;;;5.30;3.85;;;;;21.90;102624.00;;;;5033292;28;20203;-80
2022/07/09 03:45:29;;;;;;;5.95;4.35;;;;;21.90;102626.00;;;;5028184;28;20196;-80
2022/07/09 03:47:56;;;;;;;5.85;4.80;;;;;21.90;102625.00;;;;5030154;28;20212;-80
2022/07/09 03:50:24;;;;;;;5.57;4.40;;;;;21.90;102620.00;;;;5043343;28;20203;-80
2022/07/09 03:52:51;;;;;;;4.40;4.00;;;;;21.90;102622.00;;;;5048394;28;20202;-80
2022/07/09 03:55:20;;;;;;;5.93;4.30;;;;;21.90;102620.00;;;;5047708;28;20219;-81
2022/07/09 03:57:47;;;;;;;4.90;4.43;;;;;21.90;102631.00;;;;5039195;28;20208;-80
2022/07/09 04:00:15;;;;;;;8.57;5.30;;;;;21.90;102628.00;;;;5032443;28;20671;-80
2022/07/09 04:02:43;;;;;;;5.50;4.80;;;;;21.90;102632.00;;;;5028786;28;20686;-80
2022/07/09 04:05:11;;;;;;;6.28;4.75;;;;;21.90;102629.00;;;;5036458;28;20666;-80
2022/07/09 04:07:39;;;;;;;5.60;5.00;;;;;21.90;102628.00;;;;5028981;28;20672;-81
2022/07/09 04:10:07;;;;;;;6.63;4.32;;;;;21.90;102630.00;;;;5029110;28;20234;-81
2022/07/09 04:12:36;;;;;;;5.78;4.93;;;;;21.90;102627.00;;;;5028229;28;20200;-81
2022/07/09 04:15:04;;;;;;;5.35;4.55;;;;;22.00;102615.00;;;;5027654;28;20388;-81
2022/07/09 04:17:31;;;;;;;4.78;4.18;;;;;22.00;102615.00;;;;5043658;28;20696;-81
2022/07/09 04:19:58;;;;;;;5.72;4.72;;;;;22.00;102618.00;;;;5036009;28;20193;-81
2022/07/09 04:22:26;;;;;;;5.13;4.15;;;;;22.00;102615.00;;;;5035237;28;20232;-81
2022/07/09 04:24:53;;;;;;;4.85;4.20;;;;;22.00;102611.00;;;;5042213;28;20203;-81
2022/07/09 04:27:20;;;;;;;5.53;4.53;;;;;22.00;102608.00;;;;5028567;28;20191;-81
2022/07/09 04:29:49;;;;;;;6.43;4.18;;;;;22.00;102614.00;;;;5028911;28;20211;-81
2022/07/09 04:32:16;;;;;;;6.18;5.00;;;;;22.00;102611.00;;;;5028363;28;20204;-81
2022/07/09 04:34:43;;;;;;;7.53;5.20;;;;;22.00;102609.00;;;;5039082;28;20191;-81
2022/07/09 04:37:11;;;;;;;4.90;4.18;;;;;22.10;102609.00;;;;5038017;28;20195;-81
2022/07/09 04:39:38;;;;;;;5.82;4.80;;;;;22.10;102593.00;;;;5044005;28;20237;-81
2022/07/09 04:42:06;;;;;;;5.63;4.90;;;;;22.10;102603.00;;;;5028947;28;20231;-81
2022/07/09 04:44:33;;;;;;;7.22;4.93;;;;;22.10;102600.00;;;;5029348;28;20196;-82
2022/07/09 04:47:02;;;;;;;6.90;4.60;;;;;22.10;102600.00;;;;5033073;28;20206;-81
2022/07/09 04:49:29;;;;;;;6.85;5.18;;;;;22.10;102591.00;;;;5030296;28;20195;-81
2022/07/09 04:51:57;;;;;;;7.90;5.50;;;;;22.10;102599.00;;;;5029261;28;20191;-82
2022/07/09 04:54:24;;;;;;;7.03;5.70;;;;;22.20;102602.00;;;;5038304;28;20205;-81
2022/07/09 04:56:51;;;;;;;6.35;5.03;;;;;22.20;102596.00;;;;5034352;28;20228;-81
2022/07/09 04:59:19;;;;;;;6.82;5.43;;;;;22.20;102595.00;;;;5027545;28;21101;-82
2022/07/09 05:01:46;;;;;;;8.07;5.60;;;;;22.20;102588.00;;;;5027315;28;20698;-82
2022/07/09 05:04:14;;;;;;;11.15;6.70;;;;;22.20;102586.00;;;;5026900;28;20207;-82
2022/07/09 05:06:42;;;;;;;7.72;5.57;;;;;22.30;102592.00;;;;5028725;28;20200;-81
2022/07/09 05:09:09;;;;;;;9.57;6.85;;;;;22.30;102595.00;;;;5027667;28;20291;-81
2022/07/09 05:11:37;;;;;;;8.63;6.80;;;;;22.30;102592.00;;;;5027829;28;20204;-81
2022/07/09 05:14:05;;;;;;;8.63;6.97;;;;;22.30;102585.00;;;;5027241;28;20227;-82
2022/07/09 05:16:32;;;;;;;9.45;7.03;;;;;22.40;102576.00;;;;5027440;28;20657;-81
2022/07/09 05:19:00;;;;;;;12.90;8.52;;;;;22.40;102568.00;;;;5030183;28;20192;-81
2022/07/09 05:21:29;;;;;;;11.63;8.23;;;;;22.40;102585.00;;;;5042457;28;20219;-83
2022/07/09 05:23:56;;;;;;;10.48;8.10;;;;;22.50;102568.00;;;;5032637;28;20203;-82
2022/07/09 05:26:24;;;;;;;12.05;7.85;;;;;22.50;102579.00;;;;5040374;28;20203;-81
2022/07/09 05:28:52;;;;;;;11.02;7.40;;;;;22.60;102568.00;;;;5030138;28;20280;-82
2022/07/09 05:31:20;;;;;;;12.05;8.13;;;;;22.60;102576.00;;;;5034096;28;20333;-82
2022/07/09 05:33:48;;;;;;;14.35;10.30;;;;;22.60;102572.00;;;;5032646;28;20278;-83
2022/07/09 05:36:15;;;;;;;13.32;9.88;;;;;22.70;102578.00;;;;5036514;28;20231;-81
2022/07/09 05:38:44;;;;;;;12.52;8.88;;;;;22.70;102577.00;;;;5038599;28;20598;-81
2022/07/09 05:41:11;;;;;;;12.52;10.07;;;;;22.80;102580.00;;;;5039792;28;20199;-81
2022/07/09 05:43:39;;;;;;;14.30;10.63;;;;;22.80;102579.00;;;;5030140;28;20210;-80
2022/07/09 05:46:06;;;;;;;15.70;10.85;;;;;22.80;102577.00;;;;5031315;28;20204;-80
2022/07/09 05:48:33;;;;;;;16.02;10.65;;;;;22.90;102573.00;;;;5030565;28;20188;-82
2022/07/09 05:51:01;;;;;;;13.23;9.93;;;;;22.90;102586.00;;;;5032876;28;20203;-84
2022/07/09 05:53:28;;;;;;;15.90;11.32;;;;;23.00;102587.00;;;;5034522;28;20203;-82
2022/07/09 05:55:57;;;;;;;19.20;13.23;;;;;23.00;102586.00;;;;5048233;28;20227;-82
2022/07/09 05:58:24;;;;;;;19.17;12.27;;;;;23.10;102585.00;;;;5050182;28;20200;-82
2022/07/09 06:00:51;;;;;;;16.33;12.95;;;;;23.10;102594.00;;;;5051256;28;20196;-82
2022/07/09 06:03:18;;;;;;;12.63;10.68;;;;;23.20;102600.00;;;;5050853;28;20220;-82
2022/07/09 06:05:46;;;;;;;14.40;10.93;;;;;23.20;102595.00;;;;5033348;28;20203;-82
2022/07/09 06:08:13;;;;;;;13.13;10.65;;;;;23.20;102594.00;;;;5030412;28;20207;-82
2022/07/09 06:10:40;;;;;;;13.43;11.00;;;;;23.30;102587.00;;;;5030202;28;20207;-82
2022/07/09 06:13:09;;;;;;;11.13;9.60;;;;;23.30;102592.00;;;;5030101;28;20200;-82
2022/07/09 06:15:36;;;;;;;14.13;11.27;;;;;23.40;102597.00;;;;5030083;28;20211;-82
2022/07/09 06:18:04;;;;;;;11.18;9.20;;;;;23.40;102602.00;;;;5037792;28;20210;-82
2022/07/09 06:20:32;;;;;;;11.75;9.20;;;;;23.50;102601.00;;;;5049784;28;20200;-82
2022/07/09 06:23:00;;;;;;;11.63;9.27;;;;;23.60;102590.00;;;;5046308;28;20358;-82
2022/07/09 06:25:27;;;;;;;10.82;9.13;;;;;23.60;102595.00;;;;5045282;28;20207;-81
2022/07/09 06:27:55;;;;;;;13.65;9.68;;;;;23.70;102592.00;;;;5028999;28;20219;-82
2022/07/09 06:30:23;;;;;;;14.32;11.38;;;;;23.70;102588.00;;;;5032270;28;20203;-82
2022/07/09 06:32:51;;;;;;;13.27;11.57;;;;;23.80;102600.00;;;;5048677;28;20640;-82
2022/07/09 06:35:19;;;;;;;15.65;11.30;;;;;23.80;102599.00;;;;5048102;28;20442;-82
2022/07/09 06:37:46;;;;;;;13.32;10.60;;;;;23.90;102591.00;;;;5034821;28;20213;-82
2022/07/09 06:40:14;;;;;;;13.88;11.77;;;;;23.90;102602.00;;;;5049450;28;20206;-82
2022/07/09 06:42:41;;;;;;;15.63;12.45;;;;;24.00;102596.00;;;;5029308;28;20608;-81
2022/07/09 06:45:10;;;;;;;18.63;13.07;;;;;24.00;102596.00;;;;5028592;28;20204;-81
2022/07/09 06:47:39;;;;;;;17.70;12.88;;;;;24.10;102598.00;;;;5029581;28;20651;-82
2022/07/09 06:50:07;;;;;;;17.02;13.55;;;;;24.10;102594.00;;;;5035062;28;20211;-82
2022/07/09 06:52:34;;;;;;;15.45;11.65;;;;;24.20;102591.00;;;;5029351;28;20192;-82
2022/07/09 06:55:01;;;;;;;14.80;12.25;;;;;24.20;102602.00;;;;5028776;28;20191;-81
2022/07/09 06:57:30;;;;;;;12.32;10.30;;;;;24.30;102609.00;;;;5028321;28;20204;-82
2022/07/09 06:59:57;;;;;;;12.68;10.77;;;;;24.30;102598.00;;;;5028885;28;20283;-82
2022/07/09 07:02:25;;;;;;;11.45;9.45;;;;;24.40;102602.00;;;;5029570;28;20224;-81
2022/07/09 07:04:53;;;;;;;10.43;8.98;;;;;24.40;102598.00;;;;5028942;28;20205;-81
2022/07/09 07:07:21;;;;;;;10.57;8.98;;;;;24.50;102600.00;;;;5046050;28;20207;-82
2022/07/09 07:09:48;;;;;;;11.25;8.15;;;;;24.60;102590.00;;;;5048641;28;20242;-81
2022/07/09 07:12:15;;;;;;;10.13;8.07;;;;;24.70;102586.00;;;;5044000;28;20214;-81
2022/07/09 07:14:43;;;;;;;7.68;6.25;;;;;24.70;102584.00;;;;5028326;28;20200;-81
2022/07/09 07:17:10;;;;;;;10.52;7.75;;;;;24.90;102584.00;;;;5028977;28;20196;-82
2022/07/09 07:19:37;;;;;;;10.73;7.80;;;;;25.00;102582.00;;;;5028185;28;20227;-81
2022/07/09 07:22:06;;;;;;;8.43;6.78;;;;;25.10;102586.00;;;;5027848;28;20223;-81
2022/07/09 07:24:33;;;;;;;8.57;6.10;;;;;25.20;102585.00;;;;5028952;28;20208;-81
2022/07/09 07:27:00;;;;;;;7.78;6.97;;;;;25.30;102580.00;;;;5028406;28;20197;-81
2022/07/09 07:29:28;;;;;;;9.95;6.25;;;;;25.40;102578.00;;;;5028476;28;20748;-82
2022/07/09 07:31:56;;;;;;;8.05;5.90;;;;;25.50;102573.00;;;;5029037;28;20751;-80
2022/07/09 07:34:24;;;;;;;8.57;5.55;;;;;25.60;102579.00;;;;5028869;28;20205;-80
2022/07/09 07:36:52;;;;;;;7.95;6.43;;;;;25.70;102584.00;;;;5028073;28;20262;-80
2022/07/09 07:39:21;;;;;;;7.32;5.18;;;;;25.80;102589.00;;;;5027889;28;20251;-80
2022/07/09 07:41:49;;;;;;;9.20;6.03;;;;;26.00;102588.00;;;;5027672;28;20196;-80
2022/07/09 07:44:16;;;;;;;7.30;6.05;;;;;26.10;102588.00;;;;5028172;28;20286;-80
2022/07/09 07:46:44;;;;;;;6.07;5.30;;;;;26.20;102584.00;;;;5034621;28;20201;-81
2022/07/09 07:49:11;;;;;;;7.15;5.47;;;;;26.30;102592.00;;;;5048351;28;20191;-79
2022/07/09 07:51:38;;;;;;;6.03;5.30;;;;;26.30;102588.00;;;;5030325;28;20219;-80
2022/07/09 07:54:05;;;;;;;5.78;3.90;;;;;26.40;102593.00;;;;5028841;28;20625;-80
2022/07/09 07:56:36;;;;;;;7.05;4.15;;;;;26.40;102590.00;;;;5048047;28;20254;-80
2022/07/09 07:59:03;;;;;;;7.40;4.22;;;;;26.40;102590.00;;;;5047818;28;20203;-80
2022/07/09 08:01:31;;;;;;;4.97;3.45;;;;;26.40;102582.00;;;;5048306;28;20199;-80
2022/07/09 08:03:58;;;;;;;5.10;3.70;;;;;26.50;102590.00;;;;5036101;28;20248;-80
2022/07/09 08:06:25;;;;;;;3.92;3.05;;;;;26.50;102583.00;;;;5044854;28;20203;-80
2022/07/09 08:08:53;;;;;;;4.20;3.08;;;;;26.50;102582.00;;;;5047853;28;20207;-80
2022/07/09 08:11:20;;;;;;;3.95;3.13;;;;;26.50;102581.00;;;;5047704;28;20206;-80
2022/07/09 08:13:49;;;;;;;4.10;3.22;;;;;26.50;102587.00;;;;5048052;28;20205;-80
2022/07/09 08:16:16;;;;;;;5.30;2.80;;;;;26.50;102580.00;;;;5036794;28;20201;-81
2022/07/09 08:18:43;;;;;;;4.45;2.92;;;;;26.50;102588.00;;;;5027970;28;20207;-80
2022/07/09 08:21:10;;;;;;;3.17;2.88;;;;;26.50;102584.00;;;;5036080;28;20191;-80
2022/07/09 08:23:51;;;;;;;6.00;3.72;;;;;26.50;102586.00;;;;5033689;28;20240;-81
2022/07/09 08:26:19;;;;;;;5.75;3.22;;;;;26.60;102574.00;;;;5037210;28;21184;-80
2022/07/09 08:28:48;;;;;;;5.32;3.95;;;;;26.60;102580.00;;;;5047341;28;20211;-80
2022/07/09 08:31:15;;;;;;;4.45;3.92;;;;;26.60;102577.00;;;;5047707;28;20191;-80
2022/07/09 08:33:43;;;;;;;4.18;3.80;;;;;26.60;102579.00;;;;5047692;28;20199;-80
2022/07/09 08:36:11;;;;;;;5.82;4.65;;;;;26.60;102584.00;;;;5040301;28;20202;-80
2022/07/09 08:38:38;;;;;;;4.93;3.63;;;;;26.70;102583.00;;;;5042111;28;20270;-81
2022/07/09 08:41:06;;;;;;;4.95;4.50;;;;;26.70;102586.00;;;;5047341;28;20250;-80
2022/07/09 08:43:34;;;;;;;4.97;3.90;;;;;26.70;102581.00;;;;5045373;28;20227;-80
2022/07/09 08:46:04;;;;;;;4.30;3.90;;;;;26.70;102576.00;;;;5028096;28;20203;-81
2022/07/09 08:48:34;;;;;;;4.88;3.70;;;;;26.70;102577.00;;;;5044096;28;20222;-80
2022/07/09 08:51:02;;;;;;;4.07;3.55;;;;;26.80;102579.00;;;;5045994;28;20658;-80
2022/07/09 08:53:30;;;;;;;4.13;3.72;;;;;26.80;102578.00;;;;5051115;28;20196;-80
2022/07/09 08:55:58;;;;;;;4.72;4.18;;;;;26.80;102569.00;;;;5032408;28;20657;-79
2022/07/09 08:58:25;;;;;;;4.38;3.97;;;;;26.80;102573.00;;;;5031852;28;20197;-81
2022/07/09 09:00:53;;;;;;;3.55;3.25;;;;;26.80;102579.00;;;;5031197;28;20192;-80
2022/07/09 09:03:22;;;;;;;3.63;3.33;;;;;26.80;102572.00;;;;5050889;28;20223;-80
2022/07/09 09:06:02;;;;;;;3.35;2.22;;;;;26.70;102578.00;;;;5032703;28;20203;-81
2022/07/09 09:08:35;;;;;;;2.25;2.05;;;;;26.80;102579.00;;;;5032122;28;20219;-81
2022/07/09 09:11:03;;;;;;;2.88;2.00;;;;;26.80;102575.00;;;;5043149;28;20743;-80
2022/07/09 09:13:30;;;;;;;1.50;1.40;;;;;26.90;102575.00;;;;5050724;28;20204;-80
2022/07/09 09:16:06;;;;;;;2.72;1.27;;;;;26.90;102572.00;;;;5047904;28;20207;-80
2022/07/09 09:18:36;;;;;;;1.38;0.70;;;;;27.00;102575.00;;;;5036829;28;20577;-80
2022/07/09 09:21:05;;;;;;;1.52;0.80;;;;;27.10;102567.00;;;;5031770;28;20200;-80
2022/07/09 09:23:40;;;;;;;1.23;0.80;;;;;27.20;102564.00;;;;5031301;28;20220;-80
2022/07/09 09:26:15;;;;;;;1.00;0.90;;;;;27.30;102560.00;;;;5030875;28;20208;-81
2022/07/09 09:28:50;;;;;;;1.10;0.90;;;;;27.40;102571.00;;;;5033052;28;20210;-80
2022/07/09 09:31:23;;;;;;;1.77;1.13;;;;;27.40;102572.00;;;;5049373;28;20419;-80
2022/07/09 09:33:53;;;;;;;1.92;0.90;;;;;27.50;102563.00;;;;5045404;28;20203;-81
2022/07/09 09:36:34;;;;;;;3.20;1.48;;;;;27.50;102554.00;;;;5038579;28;20214;-80
2022/07/09 09:39:15;;;;;;;3.35;1.27;;;;;27.50;102558.00;;;;5033170;28;20216;-80
2022/07/09 09:41:44;;;;;;;2.13;1.13;;;;;27.70;102565.00;;;;5045720;28;20206;-80
2022/07/09 09:44:13;;;;;;;1.67;1.58;;;;;27.70;102564.00;;;;5031739;28;20224;-80
2022/07/09 09:46:43;;;;;;;2.47;1.40;;;;;27.80;102571.00;;;;5033167;28;20216;-80
2022/07/09 09:49:14;;;;;;;2.13;1.17;;;;;27.80;102570.00;;;;5039347;28;20670;-80
2022/07/09 09:51:51;;;;;;;2.25;1.30;;;;;27.80;102567.00;;;;5049841;28;20234;-81
2022/07/09 09:54:20;;;;;;;1.65;1.10;;;;;27.90;102563.00;;;;5049963;28;20231;-80
2022/07/09 09:56:48;;;;;;;1.83;1.20;;;;;27.90;102563.00;;;;5044593;28;20235;-80
2022/07/09 09:59:16;;;;;;;1.95;1.40;;;;;27.90;102561.00;;;;5029574;28;20291;-81
2022/07/09 10:01:45;;;;;;;1.02;0.93;;;;;27.90;102568.00;;;;5030424;28;20682;-81
2022/07/09 10:04:15;;;;;;;2.08;1.20;;;;;27.80;102575.00;;;;5036782;28;20224;-79
2022/07/09 10:06:44;;;;;;;1.83;0.93;;;;;27.80;102573.00;;;;5030036;28;20227;-80
2022/07/09 10:09:14;;;;;;;0.93;0.90;;;;;27.70;102582.00;;;;5040149;28;20294;-81
2022/07/09 10:11:43;;;;;;;0.80;0.80;;;;;27.70;102578.00;;;;5033644;28;20192;-80
2022/07/09 10:14:17;;;;;;;2.60;1.30;;;;;27.60;102587.00;;;;5030457;28;20207;-80
2022/07/09 10:16:45;;;;;;;0.60;0.45;;;;;27.60;102587.00;;;;5030529;28;20196;-80
2022/07/09 10:19:22;;;;;;;1.75;0.73;;;;;27.50;102594.00;;;;5034645;28;20203;-80
2022/07/09 10:21:53;;;;;;;1.63;0.70;;;;;27.50;102589.00;;;;5050094;28;20206;-80
2022/07/09 10:24:25;;;;;;;1.40;0.68;;;;;27.40;102589.00;;;;5048746;28;20223;-80
2022/07/09 10:26:53;;;;;;;0.60;0.60;;;;;27.40;102589.00;;;;5048578;28;20195;-80
2022/07/09 10:29:25;;;;;;;0.75;0.60;;;;;27.30;102594.00;;;;5049712;28;20211;-80
2022/07/09 10:31:53;;;;;;;0.98;0.70;;;;;27.30;102590.00;;;;5034254;28;20200;-80
2022/07/09 10:34:39;;;;;;;0.80;0.60;;;;;27.10;102600.00;;;;5048402;28;20208;-80
2022/07/09 10:37:07;;;;;;;1.15;0.70;;;;;27.20;102603.00;;;;5046157;28;20200;-80
2022/07/09 10:39:36;;;;;;;0.73;0.70;;;;;27.10;102600.00;;;;5044933;28;20199;-80
2022/07/09 10:42:05;;;;;;;1.10;0.80;;;;;27.10;102595.00;;;;5032477;28;20831;-81
2022/07/09 10:44:37;;;;;;;0.88;0.50;;;;;27.00;102590.00;;;;5048349;28;20230;-80
2022/07/09 10:47:05;;;;;;;1.70;0.77;;;;;27.10;102597.00;;;;5047554;28;20199;-80
2022/07/09 10:49:35;;;;;;;1.48;0.77;;;;;27.10;102585.00;;;;5049073;28;20203;-81
2022/07/09 10:52:03;;;;;;;1.58;0.88;;;;;27.20;102587.00;;;;5049170;28;20249;-79
2022/07/09 10:54:31;;;;;;;0.68;0.50;;;;;27.20;102594.00;;;;5043671;28;20192;-81
2022/07/09 10:56:59;;;;;;;0.80;0.70;;;;;27.30;102581.00;;;;5040208;28;20591;-81
2022/07/09 10:59:27;;;;;;;2.85;0.90;;;;;27.30;102591.00;;;;5028825;28;20228;-80
2022/07/09 11:01:55;;;;;;;1.88;0.70;;;;;27.30;102598.00;;;;5048455;28;20215;-80
2022/07/09 11:04:30;;;;;;;0.70;0.50;;;;;27.30;102599.00;;;;5046761;28;20231;-81
2022/07/09 11:06:59;;;;;;;0.77;0.65;;;;;27.40;102599.00;;;;5028748;28;20200;-80
2022/07/09 11:09:29;;;;;;;0.80;0.60;;;;;27.40;102595.00;;;;5028459;28;20576;-80
2022/07/09 11:11:56;;;;;;;0.63;0.60;;;;;27.40;102599.00;;;;5028141;28;20235;-80
2022/07/09 11:14:24;;;;;;;3.40;0.63;;;;;27.40;102604.00;;;;5027383;28;20201;-80
2022/07/09 11:16:58;;;;;;;1.08;0.80;;;;;27.40;102606.00;;;;5028579;28;20204;-80
2022/07/09 11:19:26;;;;;;;1.15;0.65;;;;;27.50;102600.00;;;;5028125;28;20211;-80
2022/07/09 11:22:03;;;;;;;1.30;1.10;;;;;27.40;102599.00;;;;5028586;28;20189;-81
2022/07/09 11:24:31;;;;;;;1.48;0.70;;;;;27.50;102597.00;;;;5028627;28;20602;-81
2022/07/09 11:27:03;;;;;;;1.17;0.73;;;;;27.50;102597.00;;;;5027621;28;20228;-81
2022/07/09 11:29:31;;;;;;;1.05;0.70;;;;;27.50;102609.00;;;;5038073;28;20235;-81
2022/07/09 11:32:01;;;;;;;1.95;0.60;;;;;27.60;102604.00;;;;5045350;28;20261;-82
2022/07/09 11:34:30;;;;;;;4.32;1.08;;;;;27.60;102596.00;;;;5045800;28;20280;-81
2022/07/09 11:36:58;;;;;;;0.50;0.50;;;;;27.60;102607.00;;;;5035166;28;20212;-81
2022/07/09 11:39:29;;;;;;;0.70;0.40;;;;;27.60;102606.00;;;;5028612;28;20694;-81
2022/07/09 11:41:58;;;;;;;0.95;0.50;;;;;27.60;102609.00;;;;5029797;28;20215;-80
2022/07/09 11:44:27;;;;;;;1.05;0.70;;;;;27.60;102609.00;;;;5032298;28;20220;-81
2022/07/09 11:47:07;;;;;;;1.13;0.50;;;;;27.60;102609.00;;;;5028290;28;20200;-81
2022/07/09 11:49:39;;;;;;;1.52;0.70;;;;;27.60;102608.00;;;;5028148;28;20208;-82
2022/07/09 11:52:18;;;;;;;0.63;0.52;;;;;27.60;102615.00;;;;5027573;28;20678;-81
2022/07/09 11:54:57;;;;;;;0.73;0.40;;;;;27.70;102610.00;;;;5027943;28;20191;-78
2022/07/09 11:57:25;;;;;;;1.30;0.70;;;;;27.80;102614.00;;;;5028045;28;20198;-79
2022/07/09 11:59:55;;;;;;;2.78;0.80;;;;;27.80;102608.00;;;;5031144;28;20200;-79
2022/07/09 12:02:27;;;;;;;1.27;0.80;;;;;27.80;102612.00;;;;5033397;28;20204;-79
2022/07/09 12:04:54;;;;;;;3.47;0.77;;;;;27.90;102603.00;;;;5027420;28;20235;-78
2022/07/09 12:07:22;;;;;;;2.35;0.93;;;;;27.90;102607.00;;;;5027871;28;20212;-79
2022/07/09 12:10:00;;;;;;;1.45;1.00;;;;;27.90;102603.00;;;;5027903;28;21103;-79
2022/07/09 12:12:28;;;;;;;0.60;0.60;;;;;28.00;102609.00;;;;5027850;28;20211;-79